Brainerd, Minnesota
Current Conditions -  °F | °C
As of 5:53 PM on Monday 20 Oct 2014 (Local Time) from KBRD Reporting Station
Clear Clear  
Wind Chill: 11°   Ceiling: Unl
Heat Index: 11°   Visibility: 10mi
Dew Point:   Wind: 10mph
Humidity: 61%   Direction: 30°NNE
Pressure: 30.04"   Gusts: NA
Location:  46.35°N, 94.2°W
Report Text: KBRD 202253Z AUTO 03009KT 10SM CLR 11/04 A3004 RMK AO2 SLP180 T01110039
Loading
Personal Weather Stations






























Interactive Weather Map
Tropical Storm Tracking
New forecast layout! Learn more

10-Day Weather Forecast

Advertisements
Track Severe Weather on mobile